Time;durP1;ratioP1;P1;durP2;ratioP2;P2;SDS_P1;SDS_P2;PMS_P1;PMS_P2;Temp;Humidity;BMP_temperature;BMP_pressure;BME280_temperature;BME280_humidity;BME280_pressure;Samples;Min_cycle;Max_cycle;Signal;HPM_P1;HPM_P2
2023/07/24 00:01:07;;;;;;;12.93;11.47;;;24.60;99.90;;;;;;5067579;28;20208;-76
2023/07/24 00:03:32;;;;;;;13.00;11.77;;;24.50;99.90;;;;;;5066601;28;20684;-77
2023/07/24 00:06:01;;;;;;;12.37;11.07;;;24.50;99.90;;;;;;5067915;28;20225;-77
2023/07/24 00:08:27;;;;;;;12.37;11.17;;;24.50;99.90;;;;;;5066677;28;20208;-76
2023/07/24 00:10:53;;;;;;;12.67;11.43;;;24.40;99.90;;;;;;5067646;28;20409;-77
2023/07/24 00:13:18;;;;;;;14.10;12.90;;;24.40;99.90;;;;;;5067860;28;20207;-77
2023/07/24 00:15:44;;;;;;;12.27;11.17;;;24.40;99.90;;;;;;5067567;28;20427;-77
2023/07/24 00:18:10;;;;;;;13.30;12.07;;;24.40;99.90;;;;;;5066375;28;20212;-76
2023/07/24 00:20:35;;;;;;;12.50;11.30;;;24.40;99.90;;;;;;5067159;28;20206;-76
2023/07/24 00:23:01;;;;;;;13.40;12.10;;;24.40;99.90;;;;;;5067270;28;20677;-76
2023/07/24 00:25:27;;;;;;;13.07;11.53;;;24.40;99.90;;;;;;5067215;28;20182;-77
2023/07/24 00:27:52;;;;;;;13.57;12.23;;;24.40;99.90;;;;;;5067281;28;20664;-77
2023/07/24 00:30:18;;;;;;;13.73;12.40;;;24.30;99.90;;;;;;5065823;28;20175;-77
2023/07/24 00:32:43;;;;;;;13.13;11.83;;;24.30;99.90;;;;;;5066850;28;20486;-77
2023/07/24 00:35:09;;;;;;;15.40;13.77;;;24.30;99.90;;;;;;5067105;28;20651;-77
2023/07/24 00:37:35;;;;;;;15.63;13.30;;;24.30;99.90;;;;;;5066585;28;20287;-77
2023/07/24 00:40:01;;;;;;;14.70;13.30;;;24.30;99.90;;;;;;5065537;28;20559;-77
2023/07/24 00:42:27;;;;;;;15.63;13.90;;;24.20;99.90;;;;;;5066145;28;20265;-77
2023/07/24 00:44:53;;;;;;;15.23;13.73;;;24.20;99.90;;;;;;5066307;28;20942;-76
2023/07/24 00:47:18;;;;;;;14.33;13.03;;;24.20;99.90;;;;;;5067190;28;20191;-76
2023/07/24 00:49:45;;;;;;;16.30;14.60;;;24.20;99.90;;;;;;5066897;28;20172;-76
2023/07/24 00:52:11;;;;;;;14.97;13.43;;;24.20;99.90;;;;;;5066912;28;20387;-76
2023/07/24 00:54:37;;;;;;;14.67;13.33;;;24.10;99.90;;;;;;5065758;28;20428;-77
2023/07/24 00:57:04;;;;;;;15.97;14.47;;;24.10;99.90;;;;;;5065172;28;20968;-77
2023/07/24 00:59:30;;;;;;;15.30;13.90;;;24.10;99.90;;;;;;5066877;28;20455;-77
2023/07/24 01:01:56;;;;;;;15.40;13.80;;;24.10;99.90;;;;;;5066148;28;20502;-76
2023/07/24 01:04:22;;;;;;;14.87;13.37;;;24.00;99.90;;;;;;5066672;28;21005;-76
2023/07/24 01:06:48;;;;;;;17.33;15.53;;;24.00;99.90;;;;;;5066298;28;20190;-77
2023/07/24 01:09:13;;;;;;;17.07;14.00;;;24.10;99.90;;;;;;5066714;28;20211;-76
2023/07/24 01:11:47;;;;;;;17.07;15.47;;;24.00;99.90;;;;;;5066176;28;20172;-75
2023/07/24 01:14:23;;;;;;;16.87;15.27;;;24.10;99.90;;;;;;5064886;28;20174;-76
2023/07/24 01:16:50;;;;;;;17.37;15.67;;;24.10;99.90;;;;;;5064823;28;20429;-77
2023/07/24 01:19:40;;;;;;;15.97;14.40;;;24.00;99.90;;;;;;5064842;28;20417;-76
2023/07/24 01:22:19;;;;;;;15.27;13.77;;;24.00;99.90;;;;;;5061403;28;20429;-76
2023/07/24 01:25:11;;;;;;;16.63;15.03;;;23.90;99.90;;;;;;5064989;28;20433;-77
2023/07/24 01:27:44;;;;;;;17.33;15.60;;;23.90;99.90;;;;;;5066440;28;20445;-77
2023/07/24 01:30:10;;;;;;;18.87;17.10;;;23.90;99.90;;;;;;5064760;28;20466;-77
2023/07/24 01:32:37;;;;;;;18.73;16.83;;;23.90;99.90;;;;;;5065830;28;21016;-77
2023/07/24 01:35:03;;;;;;;17.00;15.40;;;23.90;99.90;;;;;;5065565;28;20482;-77
2023/07/24 01:37:30;;;;;;;18.10;16.30;;;23.90;99.90;;;;;;5065778;28;20454;-76
2023/07/24 01:39:57;;;;;;;18.70;16.80;;;23.80;99.90;;;;;;5065643;28;20470;-77
2023/07/24 01:42:24;;;;;;;17.40;15.70;;;23.80;99.90;;;;;;5065541;28;20446;-76
2023/07/24 01:44:55;;;;;;;19.03;16.47;;;23.80;99.90;;;;;;5064877;28;20681;-76
2023/07/24 01:47:21;;;;;;;18.90;17.20;;;23.80;99.90;;;;;;5064118;28;20523;-76
2023/07/24 01:49:47;;;;;;;18.47;16.83;;;23.70;99.90;;;;;;5065657;28;20410;-77
2023/07/24 01:52:12;;;;;;;18.73;17.00;;;23.80;99.90;;;;;;5064397;28;20606;-77
2023/07/24 01:54:38;;;;;;;19.00;17.20;;;23.70;99.90;;;;;;5065692;28;20201;-76
2023/07/24 01:57:05;;;;;;;19.53;17.63;;;23.80;99.90;;;;;;5065418;28;20198;-76
2023/07/24 01:59:30;;;;;;;20.30;18.40;;;23.80;99.90;;;;;;5065703;28;20820;-77
2023/07/24 02:01:56;;;;;;;20.20;18.20;;;23.70;99.90;;;;;;5064618;28;20428;-76
2023/07/24 02:04:22;;;;;;;18.53;16.83;;;23.80;99.90;;;;;;5065339;28;20659;-76
2023/07/24 02:06:51;;;;;;;20.13;18.03;;;23.70;99.90;;;;;;5065552;28;20191;-75
2023/07/24 02:09:20;;;;;;;21.23;19.23;;;23.70;99.90;;;;;;5065472;28;20174;-76
2023/07/24 02:11:46;;;;;;;18.60;16.80;;;23.70;99.90;;;;;;5065173;28;20461;-75
2023/07/24 02:14:14;;;;;;;19.50;17.50;;;23.70;99.90;;;;;;5064087;28;20605;-76
2023/07/24 02:16:39;;;;;;;20.90;19.00;;;23.70;99.90;;;;;;5065724;28;20409;-76
2023/07/24 02:19:05;;;;;;;20.37;18.57;;;23.60;99.90;;;;;;5065413;28;20434;-76
2023/07/24 02:21:31;;;;;;;22.73;19.90;;;23.60;99.90;;;;;;5065354;28;20182;-77
2023/07/24 02:23:57;;;;;;;22.33;20.03;;;23.60;99.90;;;;;;5063996;28;20856;-76
2023/07/24 02:26:23;;;;;;;21.77;19.70;;;23.60;99.90;;;;;;5064414;28;20894;-77
2023/07/24 02:28:48;;;;;;;22.40;20.10;;;23.50;99.90;;;;;;5065038;28;20205;-77
2023/07/24 02:31:14;;;;;;;21.43;19.40;;;23.50;99.90;;;;;;5063940;28;20496;-76
2023/07/24 02:33:40;;;;;;;22.07;19.90;;;23.40;99.90;;;;;;5065797;28;20206;-76
2023/07/24 02:36:05;;;;;;;23.20;20.70;;;23.40;99.90;;;;;;5063542;28;20261;-76
2023/07/24 02:38:31;;;;;;;21.73;19.70;;;23.40;99.90;;;;;;5063253;28;20595;-76
2023/07/24 02:40:57;;;;;;;22.47;20.30;;;23.40;99.90;;;;;;5063631;28;20215;-76
2023/07/24 02:43:23;;;;;;;21.60;19.53;;;23.40;99.90;;;;;;5065229;28;20238;-78
2023/07/24 02:45:48;;;;;;;23.57;21.27;;;23.30;99.90;;;;;;5062842;28;20180;-76
2023/07/24 02:48:14;;;;;;;25.50;23.00;;;23.30;99.90;;;;;;5063633;28;20670;-76
2023/07/24 02:50:40;;;;;;;25.50;23.00;;;23.30;99.90;;;;;;5063522;28;20216;-77
2023/07/24 02:53:05;;;;;;;25.17;22.77;;;23.20;99.90;;;;;;5064861;28;20287;-77
2023/07/24 02:55:31;;;;;;;25.47;22.97;;;23.20;99.90;;;;;;5063523;28;20533;-77
2023/07/24 02:57:57;;;;;;;26.27;23.63;;;23.20;99.90;;;;;;5064669;28;20667;-76
2023/07/24 03:00:22;;;;;;;26.17;23.57;;;23.20;99.90;;;;;;5063358;28;20210;-77
2023/07/24 03:02:48;;;;;;;26.20;23.47;;;23.20;99.90;;;;;;5063550;28;20607;-77
2023/07/24 03:05:14;;;;;;;24.13;21.83;;;23.20;99.90;;;;;;5065189;28;20207;-76
2023/07/24 03:07:39;;;;;;;25.67;23.10;;;23.20;99.90;;;;;;5063582;28;20228;-76
2023/07/24 03:10:05;;;;;;;26.27;23.67;;;23.20;99.90;;;;;;5064852;28;20181;-77
2023/07/24 03:12:31;;;;;;;25.53;22.83;;;23.20;99.90;;;;;;5065017;28;20208;-75
2023/07/24 03:14:56;;;;;;;25.50;22.83;;;23.20;99.90;;;;;;5066771;28;20463;-77
2023/07/24 03:17:23;;;;;;;26.47;23.80;;;23.20;99.90;;;;;;5067158;28;20201;-77
2023/07/24 03:19:49;;;;;;;25.00;22.30;;;23.20;99.90;;;;;;5066775;28;20522;-75
2023/07/24 03:22:14;;;;;;;25.90;23.37;;;23.20;99.90;;;;;;5067316;28;20496;-75
2023/07/24 03:24:40;;;;;;;25.30;22.60;;;23.10;99.90;;;;;;5068411;28;20876;-76
2023/07/24 03:27:06;;;;;;;27.17;24.27;;;23.20;99.90;;;;;;5068248;28;20205;-76
2023/07/24 03:29:32;;;;;;;26.27;23.67;;;23.20;99.90;;;;;;5066894;28;20216;-77
2023/07/24 03:31:57;;;;;;;31.63;24.43;;;23.10;99.90;;;;;;5067886;28;20717;-77
2023/07/24 03:34:23;;;;;;;28.90;26.00;;;23.10;99.90;;;;;;5068141;28;20219;-75
2023/07/24 03:36:49;;;;;;;27.63;24.77;;;23.00;99.90;;;;;;5067900;28;20187;-77
2023/07/24 03:39:15;;;;;;;29.70;26.30;;;23.00;99.90;;;;;;5066424;28;20340;-76
2023/07/24 03:41:42;;;;;;;29.80;26.67;;;23.00;99.90;;;;;;5068232;28;20669;-77
2023/07/24 03:44:08;;;;;;;29.80;26.87;;;22.90;99.90;;;;;;5067729;28;20670;-76
2023/07/24 03:46:33;;;;;;;32.47;28.23;;;22.80;99.90;;;;;;5068328;28;20440;-76
2023/07/24 03:48:59;;;;;;;30.03;27.03;;;22.80;99.90;;;;;;5065256;28;20672;-77
2023/07/24 03:51:24;;;;;;;31.70;28.60;;;22.70;99.90;;;;;;5067999;28;20196;-75
2023/07/24 03:53:50;;;;;;;29.67;26.87;;;22.60;99.90;;;;;;5066274;28;20274;-77
2023/07/24 03:56:16;;;;;;;29.13;26.13;;;22.60;99.90;;;;;;5068091;28;20298;-76
2023/07/24 03:58:42;;;;;;;30.63;27.37;;;22.60;99.90;;;;;;5067599;28;20268;-78
2023/07/24 04:01:08;;;;;;;30.37;27.13;;;22.60;99.90;;;;;;5066174;28;20802;-76
2023/07/24 04:03:34;;;;;;;31.13;28.13;;;22.60;99.90;;;;;;5067506;28;20205;-75
2023/07/24 04:06:00;;;;;;;30.77;27.77;;;22.60;99.90;;;;;;5067452;28;20402;-77
2023/07/24 04:08:25;;;;;;;31.73;28.47;;;22.60;99.90;;;;;;5066286;28;20536;-76
2023/07/24 04:10:52;;;;;;;30.70;27.50;;;22.50;99.90;;;;;;5067257;28;20692;-77
2023/07/24 04:13:17;;;;;;;30.90;27.43;;;22.50;99.90;;;;;;5065897;28;20233;-78
2023/07/24 04:15:44;;;;;;;28.73;25.80;;;22.50;99.90;;;;;;5066220;28;20472;-77
2023/07/24 04:18:10;;;;;;;30.07;26.97;;;22.50;99.90;;;;;;5067811;28;20295;-77
2023/07/24 04:20:36;;;;;;;33.73;26.23;;;22.50;99.90;;;;;;5065753;28;20590;-76
2023/07/24 04:23:01;;;;;;;28.83;25.83;;;22.50;99.90;;;;;;5067451;28;20365;-78
2023/07/24 04:25:27;;;;;;;28.97;26.27;;;22.60;99.90;;;;;;5066683;28;20406;-77
2023/07/24 04:27:52;;;;;;;28.77;25.97;;;22.60;99.90;;;;;;5076522;28;20239;-76
2023/07/24 04:30:18;;;;;;;31.77;28.47;;;22.60;99.90;;;;;;5087520;28;20373;-76
2023/07/24 04:32:44;;;;;;;29.73;26.53;;;22.70;99.90;;;;;;5082882;28;20707;-76
2023/07/24 04:35:10;;;;;;;30.30;27.23;;;22.70;99.90;;;;;;5075879;28;20254;-77
2023/07/24 04:37:35;;;;;;;29.03;26.03;;;22.80;99.90;;;;;;5085817;28;20204;-77
2023/07/24 04:40:01;;;;;;;30.30;27.00;;;22.80;99.90;;;;;;5084943;28;20216;-79
2023/07/24 04:42:27;;;;;;;32.67;26.73;;;22.90;99.90;;;;;;5085552;28;20208;-78
2023/07/24 04:44:52;;;;;;;27.07;24.27;;;22.90;99.90;;;;;;5085341;28;20369;-76
2023/07/24 04:47:18;;;;;;;28.20;25.40;;;23.00;99.90;;;;;;5086861;28;20669;-78
2023/07/24 04:49:44;;;;;;;28.73;25.77;;;23.10;99.90;;;;;;5086108;28;20166;-77
2023/07/24 04:52:09;;;;;;;27.70;24.90;;;23.10;99.90;;;;;;5086695;28;20207;-79
2023/07/24 04:54:35;;;;;;;26.30;23.70;;;23.10;99.90;;;;;;5085506;28;20205;-75
2023/07/24 04:57:00;;;;;;;27.60;24.73;;;23.10;99.90;;;;;;5085385;28;20197;-76
2023/07/24 04:59:26;;;;;;;28.03;25.13;;;23.20;99.90;;;;;;5084439;28;20210;-79
2023/07/24 05:01:52;;;;;;;28.87;26.07;;;23.30;99.90;;;;;;5085433;28;20209;-78
2023/07/24 05:04:17;;;;;;;29.17;26.37;;;23.30;99.90;;;;;;5085201;28;20192;-79
2023/07/24 05:06:43;;;;;;;28.17;25.37;;;23.30;99.90;;;;;;5085218;28;20188;-78
2023/07/24 05:09:09;;;;;;;29.90;26.63;;;23.40;99.90;;;;;;5086092;28;20201;-79
2023/07/24 05:11:34;;;;;;;31.73;28.50;;;23.40;99.90;;;;;;5086901;28;20187;-76
2023/07/24 05:14:00;;;;;;;31.30;28.30;;;23.40;99.90;;;;;;5084125;28;20475;-79
2023/07/24 05:16:25;;;;;;;31.23;28.17;;;23.30;99.90;;;;;;5085179;28;20590;-78
2023/07/24 05:18:51;;;;;;;32.60;29.30;;;23.30;99.90;;;;;;5085639;28;20309;-75
2023/07/24 05:21:17;;;;;;;31.03;28.20;;;23.30;99.90;;;;;;5086010;28;20204;-77
2023/07/24 05:23:42;;;;;;;32.67;29.60;;;23.30;99.90;;;;;;5084885;28;20240;-75
2023/07/24 05:26:08;;;;;;;30.03;26.87;;;23.40;99.90;;;;;;5086020;28;20576;-78
2023/07/24 05:28:33;;;;;;;30.87;26.97;;;23.50;99.90;;;;;;5086146;28;20213;-76
2023/07/24 05:31:04;;;;;;;32.03;28.00;;;23.50;99.90;;;;;;5085563;28;20184;-78
2023/07/24 05:33:30;;;;;;;33.23;27.57;;;23.60;99.90;;;;;;5083749;28;20194;-75
2023/07/24 05:36:03;;;;;;;29.77;26.70;;;23.60;99.90;;;;;;5083753;28;20411;-76
2023/07/24 05:38:29;;;;;;;31.87;28.70;;;23.70;99.90;;;;;;5082711;28;20529;-75
2023/07/24 05:41:00;;;;;;;32.20;29.07;;;23.80;99.90;;;;;;5083340;28;20464;-76
2023/07/24 05:43:27;;;;;;;32.57;29.47;;;23.80;99.90;;;;;;5079788;28;20479;-78
2023/07/24 05:45:54;;;;;;;32.77;29.57;;;23.80;99.90;;;;;;5082486;28;20439;-75
2023/07/24 05:48:20;;;;;;;31.20;28.20;;;23.80;99.90;;;;;;5082437;28;20519;-76
2023/07/24 05:50:45;;;;;;;33.00;29.90;;;23.90;99.90;;;;;;5080767;28;21197;-76
2023/07/24 05:53:11;;;;;;;32.30;29.20;;;24.00;99.90;;;;;;5083799;28;20463;-80
2023/07/24 05:55:37;;;;;;;31.80;28.97;;;24.00;99.90;;;;;;5082523;28;20628;-79
2023/07/24 05:58:02;;;;;;;32.50;29.20;;;24.10;99.90;;;;;;5083267;28;20594;-78
2023/07/24 06:00:28;;;;;;;30.70;27.60;;;24.20;99.90;;;;;;5081193;28;20222;-79
2023/07/24 06:02:54;;;;;;;31.67;28.67;;;24.20;99.90;;;;;;5081578;28;20933;-76
2023/07/24 06:05:20;;;;;;;32.47;29.47;;;24.30;99.90;;;;;;5083918;28;20192;-76
2023/07/24 06:07:49;;;;;;;30.10;27.13;;;24.40;99.90;;;;;;5094423;28;20971;-80
2023/07/24 06:10:14;;;;;;;28.90;26.40;;;24.50;99.90;;;;;;5102813;28;20407;-80
2023/07/24 06:12:40;;;;;;;29.77;27.07;;;24.60;99.90;;;;;;5103040;28;20464;-76
2023/07/24 06:15:06;;;;;;;30.00;27.30;;;24.70;99.90;;;;;;5103480;28;20207;-76
2023/07/24 06:17:32;;;;;;;29.93;27.33;;;24.80;99.90;;;;;;5103034;28;20509;-77
2023/07/24 06:19:58;;;;;;;28.27;25.70;;;24.90;99.90;;;;;;5101140;28;20494;-78
2023/07/24 06:22:24;;;;;;;28.73;26.07;;;25.00;99.90;;;;;;5083856;28;20235;-76
2023/07/24 06:24:49;;;;;;;29.33;26.43;;;25.00;99.90;;;;;;5083899;28;20172;-76
2023/07/24 06:27:15;;;;;;;31.20;28.20;;;25.10;99.90;;;;;;5082279;28;20448;-80
2023/07/24 06:29:41;;;;;;;29.00;26.10;;;25.20;99.90;;;;;;5083667;28;20186;-77
2023/07/24 06:32:07;;;;;;;200.03;133.53;;;25.30;99.90;;;;;;5084276;28;20440;-80
2023/07/24 06:34:33;;;;;;;30.57;27.87;;;25.40;99.90;;;;;;5083385;28;20180;-79
2023/07/24 06:36:59;;;;;;;28.93;26.07;;;25.50;99.90;;;;;;5083156;28;20437;-76
2023/07/24 06:39:25;;;;;;;30.97;28.27;;;25.60;99.90;;;;;;5083050;28;20784;-80
2023/07/24 06:41:52;;;;;;;28.23;25.57;;;25.60;99.90;;;;;;5085177;28;20421;-76
2023/07/24 06:44:18;;;;;;;31.83;28.63;;;25.80;99.90;;;;;;5082967;28;20186;-80
2023/07/24 06:46:43;;;;;;;35.90;29.50;;;25.80;99.90;;;;;;5084372;28;20404;-76
2023/07/24 06:49:10;;;;;;;28.60;25.90;;;25.90;99.90;;;;;;5085304;28;20226;-79
2023/07/24 06:51:37;;;;;;;31.77;28.50;;;26.00;99.90;;;;;;5080974;28;20270;-76
2023/07/24 06:54:02;;;;;;;42.30;32.53;;;26.10;99.90;;;;;;5083902;28;20424;-77
2023/07/24 06:56:28;;;;;;;30.57;27.53;;;26.20;99.90;;;;;;5086320;28;20400;-77
2023/07/24 06:58:54;;;;;;;30.80;27.83;;;26.30;99.90;;;;;;5085947;28;20236;-80
2023/07/24 07:01:19;;;;;;;61.37;35.37;;;26.40;99.90;;;;;;5085019;28;20216;-79
2023/07/24 07:03:45;;;;;;;92.30;51.33;;;26.50;99.90;;;;;;5085280;28;20330;-79
2023/07/24 07:06:11;;;;;;;30.50;27.57;;;26.50;99.90;;;;;;5084103;28;20200;-76
2023/07/24 07:08:37;;;;;;;31.17;28.37;;;26.60;99.90;;;;;;5083253;28;20192;-77
2023/07/24 07:11:03;;;;;;;31.30;28.47;;;26.70;99.90;;;;;;5083863;28;20401;-76
2023/07/24 07:13:29;;;;;;;83.30;42.80;;;26.80;99.90;;;;;;5083871;28;20833;-80
2023/07/24 07:15:54;;;;;;;87.07;47.40;;;26.80;99.90;;;;;;5083091;28;20173;-76
2023/07/24 07:18:20;;;;;;;35.90;32.40;;;26.90;99.90;;;;;;5082294;28;20204;-76
2023/07/24 07:20:47;;;;;;;39.60;35.40;;;26.80;99.90;;;;;;5083050;28;20534;-76
2023/07/24 07:23:13;;;;;;;53.93;41.67;;;26.70;99.90;;;;;;5084308;28;20212;-84
2023/07/24 07:25:39;;;;;;;37.90;34.27;;;26.70;99.90;;;;;;5083699;28;20404;-76
2023/07/24 07:28:05;;;;;;;38.53;34.80;;;26.80;99.90;;;;;;5083602;28;20981;-83
2023/07/24 07:30:31;;;;;;;101.27;51.47;;;26.80;99.90;;;;;;5084358;28;20416;-83
2023/07/24 07:32:56;;;;;;;37.87;33.77;;;26.90;99.90;;;;;;5082949;28;20192;-77
2023/07/24 07:35:22;;;;;;;36.97;33.50;;;26.90;99.90;;;;;;5081795;28;20350;-76
2023/07/24 07:37:48;;;;;;;122.83;59.03;;;27.00;99.90;;;;;;5096841;28;20222;-77
2023/07/24 07:40:13;;;;;;;161.00;56.90;;;27.10;99.90;;;;;;5094482;28;20212;-83
2023/07/24 07:42:39;;;;;;;74.37;46.50;;;27.10;99.90;;;;;;5081020;28;20196;-83
2023/07/24 07:45:05;;;;;;;35.37;31.97;;;27.20;99.90;;;;;;5081340;28;20657;-76
2023/07/24 07:47:31;;;;;;;59.90;41.13;;;27.30;99.90;;;;;;5076585;28;20445;-83
2023/07/24 07:49:57;;;;;;;68.77;43.00;;;27.30;99.90;;;;;;5072833;28;20425;-80
2023/07/24 07:52:22;;;;;;;33.00;29.83;;;27.40;99.90;;;;;;5071626;28;21073;-77
2023/07/24 07:54:48;;;;;;;30.03;27.13;;;27.50;99.90;;;;;;5081981;28;20180;-83
2023/07/24 07:57:15;;;;;;;31.37;28.10;;;27.60;99.90;;;;;;5084721;28;20601;-84
2023/07/24 07:59:41;;;;;;;29.37;26.60;;;27.70;99.90;;;;;;5081835;28;20497;-84
2023/07/24 08:02:07;;;;;;;29.77;27.20;;;27.80;99.90;;;;;;5079679;28;20444;-83
2023/07/24 08:04:33;;;;;;;26.47;24.07;;;27.90;99.90;;;;;;5078800;28;20437;-84
2023/07/24 08:06:58;;;;;;;27.30;24.80;;;28.10;99.90;;;;;;5082951;28;20989;-77
2023/07/24 08:09:24;;;;;;;28.93;26.00;;;28.20;99.90;;;;;;5082211;28;20324;-84
2023/07/24 08:11:51;;;;;;;27.50;24.87;;;28.30;99.90;;;;;;5080988;28;20273;-83
2023/07/24 08:14:17;;;;;;;25.13;22.83;;;28.40;99.90;;;;;;5079308;28;20183;-83
2023/07/24 08:16:43;;;;;;;29.33;25.60;;;28.50;99.90;;;;;;5081559;28;20697;-77
2023/07/24 08:19:08;;;;;;;25.17;22.87;;;28.60;99.90;;;;;;5081102;28;20405;-77
2023/07/24 08:21:34;;;;;;;62.20;36.30;;;28.70;99.90;;;;;;5078948;28;20201;-82
2023/07/24 08:24:01;;;;;;;34.40;26.00;;;28.80;99.90;;;;;;5074875;28;20285;-76
2023/07/24 08:26:27;;;;;;;27.43;24.83;;;28.90;99.90;;;;;;5080885;28;21057;-77
2023/07/24 08:28:53;;;;;;;28.27;25.20;;;28.90;99.90;;;;;;5081216;28;20527;-83
2023/07/24 08:31:19;;;;;;;27.00;24.57;;;29.00;99.90;;;;;;5082456;28;20246;-80
2023/07/24 08:33:45;;;;;;;30.23;26.00;;;29.00;99.90;;;;;;5079552;28;20211;-83
2023/07/24 08:36:13;;;;;;;29.47;26.27;;;29.10;99.90;;;;;;5082595;28;20419;-78
2023/07/24 08:38:40;;;;;;;24.83;22.50;;;29.20;99.90;;;;;;5080773;28;20211;-83
2023/07/24 08:41:07;;;;;;;33.23;25.67;;;29.30;99.90;;;;;;5079110;28;20777;-83
2023/07/24 08:43:34;;;;;;;26.63;24.03;;;29.40;99.90;;;;;;5082775;28;20459;-77
2023/07/24 08:46:01;;;;;;;32.70;25.67;;;29.50;99.90;;;;;;5083508;28;21001;-82
2023/07/24 08:48:30;;;;;;;28.83;24.60;;;29.50;99.90;;;;;;5084081;28;20879;-81
2023/07/24 08:50:57;;;;;;;23.40;21.10;;;29.60;99.90;;;;;;5068452;28;20979;-83
2023/07/24 08:53:24;;;;;;;29.00;22.70;;;29.70;99.90;;;;;;5084948;28;20447;-82
2023/07/24 08:55:52;;;;;;;23.43;21.23;;;29.80;99.90;;;;;;5083089;28;20418;-83
2023/07/24 08:58:17;;;;;;;20.50;18.37;;;29.90;99.90;;;;;;5084566;28;20506;-84
2023/07/24 09:00:43;;;;;;;21.73;17.00;;;30.00;99.90;;;;;;5078855;28;20453;-79
2023/07/24 09:03:10;;;;;;;28.50;20.33;;;30.10;99.90;;;;;;5083268;28;20261;-78
2023/07/24 09:05:36;;;;;;;35.60;22.70;;;30.10;99.90;;;;;;5081166;28;20327;-76
2023/07/24 09:08:01;;;;;;;21.33;18.37;;;30.20;99.90;;;;;;5081682;28;20729;-83
2023/07/24 09:10:27;;;;;;;22.27;17.20;;;30.30;99.90;;;;;;5083724;28;20542;-80
2023/07/24 09:12:53;;;;;;;18.37;16.63;;;30.30;99.90;;;;;;5078738;28;20362;-83
2023/07/24 09:15:18;;;;;;;20.20;18.10;;;30.40;99.90;;;;;;5082766;28;20182;-82
2023/07/24 09:17:52;;;;;;;20.63;18.43;;;30.50;99.90;;;;;;5081614;28;20451;-83
2023/07/24 09:20:18;;;;;;;15.10;13.60;;;30.60;99.90;;;;;;5080756;28;20581;-82
2023/07/24 09:22:51;;;;;;;16.43;14.73;;;30.70;99.90;;;;;;5081381;28;20489;-76
2023/07/24 09:25:17;;;;;;;14.40;12.93;;;30.80;99.90;;;;;;5074327;28;20548;-83
2023/07/24 09:27:44;;;;;;;16.70;13.47;;;30.90;99.90;;;;;;5087651;28;20444;-82
2023/07/24 09:30:19;;;;;;;13.97;12.57;;;30.90;99.90;;;;;;5063746;28;20360;-76
2023/07/24 09:32:52;;;;;;;19.00;13.00;;;31.00;99.90;;;;;;5073323;28;20551;-76
2023/07/24 09:35:18;;;;;;;13.47;11.80;;;31.10;99.90;;;;;;5064436;28;20425;-76
2023/07/24 09:37:44;;;;;;;17.10;12.73;;;31.20;99.90;;;;;;5073401;28;20720;-83
2023/07/24 09:40:11;;;;;;;14.97;13.37;;;31.30;99.90;;;;;;5081705;28;21094;-83
2023/07/24 09:42:39;;;;;;;17.50;13.53;;;31.40;99.90;;;;;;5078244;28;21131;-77
2023/07/24 09:45:08;;;;;;;20.07;15.70;;;31.40;99.90;;;;;;5083357;28;20657;-76
2023/07/24 09:47:34;;;;;;;17.90;12.17;;;31.50;99.90;;;;;;5069414;28;20465;-84
2023/07/24 09:50:03;;;;;;;45.87;35.00;;;31.50;99.90;;;;;;5065397;28;20837;-76
2023/07/24 09:52:30;;;;;;;24.90;18.63;;;31.50;99.90;;;;;;5073630;28;20966;-76
2023/07/24 09:55:01;;;;;;;21.63;16.47;;;31.60;99.90;;;;;;5074553;28;20539;-83
2023/07/24 09:57:29;;;;;;;14.77;13.17;;;31.70;99.90;;;;;;5082279;28;20491;-83
2023/07/24 09:59:56;;;;;;;16.53;11.80;;;31.80;99.90;;;;;;5076606;28;20636;-76
2023/07/24 10:02:23;;;;;;;16.97;14.07;;;31.90;99.90;;;;;;5063489;28;20534;-83
2023/07/24 10:04:49;;;;;;;15.53;12.43;;;32.00;99.90;;;;;;5073243;28;20466;-77
2023/07/24 10:07:15;;;;;;;15.73;13.30;;;32.00;99.90;;;;;;5068930;28;20445;-76
2023/07/24 10:09:43;;;;;;;19.20;13.80;;;32.10;99.90;;;;;;5072625;28;20460;-77
2023/07/24 10:12:09;;;;;;;17.17;14.00;;;32.20;99.90;;;;;;5078700;28;20461;-76
2023/07/24 10:14:37;;;;;;;18.30;14.53;;;32.20;99.90;;;;;;5079873;28;20656;-83
2023/07/24 10:17:03;;;;;;;18.13;14.43;;;32.30;99.90;;;;;;5079379;28;21039;-83
2023/07/24 10:19:45;;;;;;;18.53;14.23;;;32.40;99.90;;;;;;5069920;28;20410;-83
2023/07/24 10:22:19;;;;;;;15.43;13.70;;;32.40;99.90;;;;;;5079197;28;20233;-83
2023/07/24 10:24:45;;;;;;;17.03;13.77;;;32.50;99.90;;;;;;5078021;28;20417;-77
2023/07/24 10:27:11;;;;;;;14.80;12.73;;;32.60;99.90;;;;;;5078396;28;20925;-77
2023/07/24 10:29:38;;;;;;;19.00;14.17;;;32.60;99.30;;;;;;5076492;28;20413;-77
2023/07/24 10:32:16;;;;;;;17.63;13.67;;;32.60;98.20;;;;;;5078370;28;20437;-77
2023/07/24 10:34:42;;;;;;;17.33;13.07;;;32.60;97.50;;;;;;5075325;28;20465;-84
2023/07/24 10:37:09;;;;;;;23.23;14.30;;;32.60;97.20;;;;;;5079411;28;20432;-84
2023/07/24 10:39:40;;;;;;;17.07;13.67;;;32.70;96.10;;;;;;5076747;28;20283;-84
2023/07/24 10:42:08;;;;;;;18.20;13.87;;;32.70;95.80;;;;;;5074167;28;20437;-77
2023/07/24 10:44:34;;;;;;;16.70;14.00;;;32.80;95.10;;;;;;5077817;28;20424;-83
2023/07/24 10:47:00;;;;;;;15.37;13.70;;;32.80;94.80;;;;;;5080622;28;20437;-76
2023/07/24 10:49:25;;;;;;;16.73;12.63;;;33.00;94.90;;;;;;5079227;28;20642;-77
2023/07/24 10:52:00;;;;;;;16.37;12.37;;;33.10;94.20;;;;;;5076278;28;20196;-83
2023/07/24 10:54:26;;;;;;;18.33;12.60;;;33.10;94.40;;;;;;5066298;28;20203;-83
2023/07/24 10:57:00;;;;;;;17.47;13.90;;;33.10;94.60;;;;;;5071652;28;20519;-76
2023/07/24 10:59:39;;;;;;;16.60;14.43;;;33.20;94.70;;;;;;5074495;28;20200;-76
2023/07/24 11:02:05;;;;;;;19.77;15.10;;;33.20;94.70;;;;;;5075633;28;20424;-84
2023/07/24 11:04:32;;;;;;;20.63;13.20;;;33.20;93.80;;;;;;5075799;28;20752;-84
2023/07/24 11:06:57;;;;;;;18.43;15.20;;;33.30;93.80;;;;;;5070033;28;20878;-77
2023/07/24 11:09:33;;;;;;;18.63;14.10;;;33.30;93.90;;;;;;5074366;28;20516;-76
2023/07/24 11:11:59;;;;;;;17.73;14.07;;;33.30;94.00;;;;;;5067351;28;20192;-83
2023/07/24 11:14:25;;;;;;;15.40;13.20;;;33.40;94.30;;;;;;5068611;28;20984;-83
2023/07/24 11:16:51;;;;;;;15.03;13.00;;;33.40;94.30;;;;;;5064710;28;20192;-83
2023/07/24 11:19:25;;;;;;;15.80;13.17;;;33.40;93.90;;;;;;5071626;28;20177;-82
2023/07/24 11:21:51;;;;;;;18.17;13.60;;;33.50;93.80;;;;;;5073047;28;20243;-79
2023/07/24 11:24:18;;;;;;;14.70;12.80;;;33.60;94.20;;;;;;5076841;28;20463;-76
2023/07/24 11:26:43;;;;;;;17.97;13.40;;;33.70;94.10;;;;;;5065210;28;20444;-76
2023/07/24 11:29:13;;;;;;;15.77;13.20;;;33.80;94.30;;;;;;5072069;28;20520;-83
2023/07/24 11:31:38;;;;;;;16.53;13.20;;;33.70;93.40;;;;;;5071390;28;20174;-76
2023/07/24 11:34:06;;;;;;;16.17;12.90;;;33.80;93.00;;;;;;5076243;28;20610;-76
2023/07/24 11:36:32;;;;;;;14.63;12.70;;;33.90;93.20;;;;;;5080401;28;20342;-76
2023/07/24 11:38:58;;;;;;;17.17;12.60;;;33.90;92.40;;;;;;5077220;28;20464;-83
2023/07/24 11:41:26;;;;;;;17.93;13.50;;;33.90;92.50;;;;;;5073019;28;20493;-76
2023/07/24 11:43:52;;;;;;;18.00;13.83;;;33.90;92.50;;;;;;5081685;28;20284;-83
2023/07/24 11:46:28;;;;;;;15.97;13.37;;;33.90;92.00;;;;;;5080604;28;20519;-79
2023/07/24 11:48:56;;;;;;;13.80;12.30;;;33.90;91.40;;;;;;5085515;28;20188;-77
2023/07/24 11:51:24;;;;;;;18.10;12.70;;;33.90;91.10;;;;;;5066358;28;20430;-77
2023/07/24 11:53:50;;;;;;;15.07;12.37;;;34.00;90.50;;;;;;5083482;28;20826;-77
2023/07/24 11:56:18;;;;;;;16.40;12.77;;;34.00;90.20;;;;;;5083006;28;20413;-82
2023/07/24 11:58:44;;;;;;;18.30;13.80;;;34.00;89.40;;;;;;5083695;28;20301;-83
2023/07/24 12:01:13;;;;;;;14.43;12.73;;;34.00;89.00;;;;;;5079161;28;20457;-76
2023/07/24 12:03:40;;;;;;;19.97;13.33;;;34.00;90.10;;;;;;5083072;28;20239;-77
2023/07/24 12:06:15;;;;;;;17.03;13.57;;;34.10;91.50;;;;;;5082262;28;20413;-77
2023/07/24 12:08:41;;;;;;;16.63;13.33;;;34.20;91.50;;;;;;5081747;28;20464;-84
2023/07/24 12:11:18;;;;;;;19.60;13.07;;;34.20;91.80;;;;;;5067467;28;20465;-83
2023/07/24 12:13:43;;;;;;;15.90;14.07;;;34.30;91.60;;;;;;5078513;28;20707;-84
2023/07/24 12:16:09;;;;;;;19.57;14.00;;;34.40;91.70;;;;;;5077120;28;20453;-82
2023/07/24 12:18:35;;;;;;;15.87;13.33;;;34.40;91.30;;;;;;5080987;28;20204;-84
2023/07/24 12:21:00;;;;;;;17.83;13.47;;;34.40;91.80;;;;;;5079918;28;20208;-77
2023/07/24 12:23:26;;;;;;;14.57;12.23;;;34.40;90.90;;;;;;5081805;28;20204;-77